createdAt,value
2023-02-20T00:01:03.496Z,9.80
2023-02-20T00:03:31.428Z,9.80
2023-02-20T00:05:58.524Z,9.80
2023-02-20T00:08:25.569Z,9.80
2023-02-20T00:10:52.839Z,9.80
2023-02-20T00:13:19.858Z,9.80
2023-02-20T00:15:46.795Z,9.80
2023-02-20T00:18:14.566Z,9.80
2023-02-20T00:20:41.720Z,9.80
2023-02-20T00:23:08.929Z,9.80
2023-02-20T00:25:36.234Z,9.78
2023-02-20T00:28:03.864Z,9.84
2023-02-20T00:30:31.171Z,9.80
2023-02-20T00:32:58.987Z,9.84
2023-02-20T00:35:26.667Z,9.90
2023-02-20T00:37:55.183Z,9.90
2023-02-20T00:40:24.522Z,9.90
2023-02-20T00:42:52.314Z,9.90
2023-02-20T00:45:19.583Z,9.90
2023-02-20T00:47:46.844Z,9.90
2023-02-20T00:50:16.228Z,9.90
2023-02-20T00:52:45.825Z,9.90
2023-02-20T00:55:13.510Z,9.92
2023-02-20T00:57:41.095Z,9.90
2023-02-20T01:00:13.118Z,10.00
2023-02-20T01:02:39.962Z,9.90
2023-02-20T01:05:07.205Z,9.90
2023-02-20T01:07:35.767Z,9.90
2023-02-20T01:10:02.650Z,9.90
2023-02-20T01:12:29.665Z,9.90
2023-02-20T01:14:56.738Z,9.90
2023-02-20T01:17:23.874Z,9.90
2023-02-20T01:19:50.916Z,9.90
2023-02-20T01:22:20.350Z,9.90
2023-02-20T01:24:49.750Z,9.90
2023-02-20T01:27:17.344Z,9.90
2023-02-20T01:29:44.430Z,9.90
2023-02-20T01:32:12.830Z,9.90
2023-02-20T01:34:40.444Z,9.90
2023-02-20T01:37:07.415Z,9.90
2023-02-20T01:39:35.300Z,9.90
2023-02-20T01:42:06.852Z,9.90
2023-02-20T01:44:37.028Z,9.94
2023-02-20T01:47:09.122Z,9.90
2023-02-20T01:49:52.456Z,9.94
2023-02-20T01:52:29.648Z,9.90
2023-02-20T01:55:01.793Z,9.90
2023-02-20T01:57:32.852Z,9.90
2023-02-20T02:00:06.752Z,9.90
2023-02-20T02:02:48.314Z,9.90
2023-02-20T02:05:17.546Z,9.90
2023-02-20T02:07:45.559Z,9.90
2023-02-20T02:10:22.933Z,9.90
2023-02-20T02:12:53.501Z,9.90
2023-02-20T02:15:23.553Z,9.90
2023-02-20T02:18:03.376Z,9.90
2023-02-20T02:20:42.722Z,9.90
2023-02-20T02:23:31.897Z,9.90
2023-02-20T02:26:50.337Z,9.90
2023-02-20T02:29:44.860Z,9.90
2023-02-20T02:32:36.650Z,9.90
2023-02-20T02:35:22.160Z,9.90
2023-02-20T02:38:15.192Z,9.90
2023-02-20T02:40:56.697Z,9.90
2023-02-20T02:43:35.294Z,9.90
2023-02-20T02:46:10.949Z,9.90
2023-02-20T02:49:16.098Z,9.90
2023-02-20T02:51:48.162Z,9.90
2023-02-20T02:54:26.372Z,9.90
2023-02-20T02:57:14.392Z,9.90
2023-02-20T02:59:42.811Z,9.90
2023-02-20T03:02:14.854Z,9.92
2023-02-20T03:04:45.219Z,9.90
2023-02-20T03:07:16.660Z,10.00
2023-02-20T03:09:52.303Z,10.00
2023-02-20T03:12:22.624Z,10.00
2023-02-20T03:15:37.725Z,9.92
2023-02-20T03:18:32.252Z,9.98
2023-02-20T03:21:04.087Z,9.96
2023-02-20T03:23:37.956Z,9.90
2023-02-20T03:26:19.668Z,9.90
2023-02-20T03:28:55.671Z,9.90
2023-02-20T03:31:51.100Z,9.90
2023-02-20T03:34:45.713Z,9.90
2023-02-20T03:37:40.450Z,9.90
2023-02-20T03:40:30.984Z,9.90
2023-02-20T03:43:25.871Z,9.90
2023-02-20T03:46:05.371Z,9.86
2023-02-20T03:48:44.244Z,9.90
2023-02-20T03:51:12.656Z,9.90
2023-02-20T03:53:47.884Z,9.90
2023-02-20T03:56:29.339Z,9.90
2023-02-20T03:59:04.134Z,9.90
2023-02-20T04:01:33.836Z,9.90
2023-02-20T04:04:01.230Z,9.86
2023-02-20T04:06:33.194Z,9.84
2023-02-20T04:09:07.244Z,9.82
2023-02-20T04:11:50.060Z,9.84
2023-02-20T04:14:20.737Z,9.80
2023-02-20T04:16:58.743Z,9.80
2023-02-20T04:19:26.845Z,9.84
2023-02-20T04:22:02.120Z,9.88
2023-02-20T04:24:48.248Z,9.80
2023-02-20T04:27:16.049Z,9.84
2023-02-20T04:29:48.017Z,9.80
2023-02-20T04:32:15.450Z,9.82
2023-02-20T04:34:43.125Z,9.80
2023-02-20T04:37:14.766Z,9.88
2023-02-20T04:39:43.348Z,9.80
2023-02-20T04:42:10.501Z,9.82
2023-02-20T04:44:37.710Z,9.82
2023-02-20T04:47:08.475Z,9.82
2023-02-20T04:49:35.778Z,9.86
2023-02-20T04:52:05.005Z,9.80
2023-02-20T04:54:32.138Z,9.80
2023-02-20T04:57:00.656Z,9.80
2023-02-20T04:59:27.707Z,9.80
2023-02-20T05:01:55.158Z,9.80
2023-02-20T05:04:22.692Z,9.74
2023-02-20T05:06:52.947Z,9.70
2023-02-20T05:09:21.596Z,9.70
2023-02-20T05:11:48.589Z,9.70
2023-02-20T05:14:16.547Z,9.70
2023-02-20T05:16:45.626Z,9.70
2023-02-20T05:19:14.286Z,9.70
2023-02-20T05:22:04.614Z,9.70
2023-02-20T05:24:32.308Z,9.70
2023-02-20T05:26:59.878Z,9.70
2023-02-20T05:29:26.980Z,9.70
2023-02-20T05:31:54.499Z,9.70
2023-02-20T05:34:22.925Z,9.70
2023-02-20T05:36:50.086Z,9.70
2023-02-20T05:39:17.237Z,9.70
2023-02-20T05:41:46.828Z,9.62
2023-02-20T05:44:16.285Z,9.70
2023-02-20T05:46:44.069Z,9.60
2023-02-20T05:49:12.026Z,9.60
2023-02-20T05:51:39.263Z,9.60
2023-02-20T05:54:12.471Z,9.60
2023-02-20T05:56:49.320Z,9.60
2023-02-20T05:59:28.618Z,9.50
2023-02-20T06:02:08.054Z,9.50
2023-02-20T06:04:35.334Z,9.40
2023-02-20T06:07:11.072Z,9.38
2023-02-20T06:09:45.055Z,9.30
2023-02-20T06:12:18.461Z,9.30
2023-02-20T06:14:51.445Z,9.20
2023-02-20T06:17:21.116Z,9.20
2023-02-20T06:19:59.570Z,9.20
2023-02-20T06:22:34.961Z,9.10
2023-02-20T06:25:37.492Z,9.10
2023-02-20T06:28:10.275Z,9.10
2023-02-20T06:30:46.022Z,9.10
2023-02-20T06:33:27.970Z,9.10
2023-02-20T06:36:04.939Z,9.10
2023-02-20T06:38:59.903Z,9.10
2023-02-20T06:41:41.913Z,9.10
2023-02-20T06:44:23.494Z,9.20
2023-02-20T06:46:53.271Z,9.20
2023-02-20T06:49:31.830Z,9.20
2023-02-20T06:52:04.303Z,9.28
2023-02-20T06:54:37.277Z,9.28
2023-02-20T06:57:04.945Z,9.30
2023-02-20T06:59:44.286Z,9.30
2023-02-20T07:02:20.391Z,9.30
2023-02-20T07:04:55.688Z,9.30
2023-02-20T07:07:25.450Z,9.30
2023-02-20T07:10:07.049Z,9.38
2023-02-20T07:12:44.198Z,9.40
2023-02-20T07:15:22.678Z,9.44
2023-02-20T07:18:00.481Z,9.50
2023-02-20T07:20:30.932Z,9.68
2023-02-20T07:23:13.977Z,9.80
2023-02-20T07:25:41.183Z,9.90
2023-02-20T07:28:10.783Z,10.00
2023-02-20T07:30:49.246Z,10.00
2023-02-20T07:33:23.023Z,10.00
2023-02-20T07:36:04.614Z,10.00
2023-02-20T07:38:34.814Z,10.00
2023-02-20T07:41:11.504Z,10.00
2023-02-20T07:43:52.522Z,10.00
2023-02-20T07:46:25.695Z,10.00
2023-02-20T07:48:59.350Z,10.00
2023-02-20T07:51:35.423Z,10.10
2023-02-20T07:54:11.265Z,10.10
2023-02-20T07:56:45.785Z,10.10
2023-02-20T07:59:16.210Z,10.10
2023-02-20T08:01:46.619Z,10.20
2023-02-20T08:04:17.865Z,10.20
2023-02-20T08:06:47.951Z,10.20
2023-02-20T08:09:17.608Z,10.20
2023-02-20T08:11:47.726Z,10.30
2023-02-20T08:14:20.253Z,10.40
2023-02-20T08:16:47.369Z,10.50
2023-02-20T08:19:17.790Z,10.70
2023-02-20T08:21:50.612Z,10.98
2023-02-20T08:24:17.909Z,11.20
2023-02-20T08:26:48.760Z,11.40
2023-02-20T08:29:22.367Z,11.50
2023-02-20T08:31:56.946Z,11.60
2023-02-20T08:34:24.428Z,11.70
2023-02-20T08:36:54.837Z,11.70
2023-02-20T08:39:27.123Z,11.80
2023-02-20T08:41:57.465Z,11.80
2023-02-20T08:44:30.433Z,11.88
2023-02-20T08:46:57.606Z,11.90
2023-02-20T08:49:27.601Z,11.98
2023-02-20T08:51:59.246Z,12.00
2023-02-20T08:54:26.718Z,12.20
2023-02-20T08:56:56.957Z,12.30
2023-02-20T08:59:31.238Z,12.38
2023-02-20T09:02:09.247Z,12.40
2023-02-20T09:04:52.813Z,12.52
2023-02-20T09:07:26.346Z,12.62
2023-02-20T09:10:17.206Z,12.70
2023-02-20T09:12:50.498Z,12.84
2023-02-20T09:15:22.679Z,12.90
2023-02-20T09:17:54.566Z,13.00
2023-02-20T09:20:28.360Z,13.02
2023-02-20T09:22:58.642Z,13.10
2023-02-20T09:25:31.118Z,13.10
2023-02-20T09:27:58.999Z,13.20
2023-02-20T09:30:26.602Z,13.20
2023-02-20T09:32:55.244Z,13.30
2023-02-20T09:35:34.566Z,13.30
2023-02-20T09:38:04.276Z,13.40
2023-02-20T09:40:32.861Z,13.50
2023-02-20T09:43:13.844Z,13.50
2023-02-20T09:45:51.969Z,13.52
2023-02-20T09:48:56.816Z,13.60
2023-02-20T09:51:27.469Z,13.56
2023-02-20T09:54:16.220Z,13.60
2023-02-20T09:56:51.089Z,13.60
2023-02-20T09:59:27.561Z,13.60
2023-02-20T10:02:12.944Z,13.60
2023-02-20T10:05:00.376Z,13.60
2023-02-20T10:07:32.552Z,13.70
2023-02-20T10:10:03.092Z,13.70
2023-02-20T10:12:42.664Z,13.74
2023-02-20T10:15:37.500Z,13.80
2023-02-20T10:18:58.617Z,13.80
2023-02-20T10:21:41.733Z,13.90
2023-02-20T10:24:42.889Z,13.90
2023-02-20T10:27:35.017Z,13.90
2023-02-20T10:30:06.642Z,14.00
2023-02-20T10:32:41.742Z,14.00
2023-02-20T10:35:13.101Z,14.10
2023-02-20T10:37:50.796Z,14.10
2023-02-20T10:40:31.933Z,14.10
2023-02-20T10:43:33.986Z,14.10
2023-02-20T10:46:20.940Z,14.10
2023-02-20T10:48:48.340Z,14.30
2023-02-20T10:51:33.780Z,14.40
2023-02-20T10:54:10.845Z,14.40
2023-02-20T10:56:54.053Z,14.46
2023-02-20T10:59:36.914Z,14.50
2023-02-20T11:02:16.978Z,14.60
2023-02-20T11:04:54.953Z,14.68
2023-02-20T11:07:24.898Z,14.70
2023-02-20T11:09:55.577Z,14.70
2023-02-20T11:12:59.274Z,14.70
2023-02-20T11:15:33.699Z,14.70
2023-02-20T11:18:01.083Z,14.60
2023-02-20T11:20:38.847Z,14.40
2023-02-20T11:23:11.667Z,14.30
2023-02-20T11:25:42.272Z,14.10
2023-02-20T11:28:26.840Z,13.90
2023-02-20T11:31:06.264Z,14.00
2023-02-20T11:33:45.679Z,14.10
2023-02-20T11:36:39.268Z,14.20
2023-02-20T11:39:24.339Z,14.44
2023-02-20T11:42:21.510Z,14.50
2023-02-20T11:45:13.421Z,14.40
2023-02-20T11:47:46.109Z,14.40
2023-02-20T11:50:20.486Z,14.30
2023-02-20T11:53:03.098Z,14.10
2023-02-20T11:55:30.282Z,13.90
2023-02-20T11:57:57.739Z,13.78
2023-02-20T12:00:27.456Z,13.64
2023-02-20T12:03:10.000Z,13.60
2023-02-20T12:05:43.263Z,13.60
2023-02-20T12:08:55.316Z,13.70
2023-02-20T12:11:27.353Z,13.80
2023-02-20T12:14:06.724Z,13.90
2023-02-20T12:17:09.346Z,14.06
2023-02-20T12:20:00.649Z,14.10
2023-02-20T12:22:37.010Z,14.18
2023-02-20T12:25:32.421Z,14.10
2023-02-20T12:28:36.670Z,14.00
2023-02-20T12:31:22.064Z,14.00
2023-02-20T12:34:13.854Z,13.88
2023-02-20T12:36:58.608Z,13.94
2023-02-20T12:39:41.033Z,14.00
2023-02-20T12:42:26.292Z,14.00
2023-02-20T12:45:12.574Z,14.02
2023-02-20T12:47:46.700Z,14.00
2023-02-20T12:50:30.650Z,14.00
2023-02-20T12:52:57.691Z,14.00
2023-02-20T12:55:38.254Z,14.10
2023-02-20T12:58:28.474Z,14.30
2023-02-20T13:01:05.501Z,14.40
2023-02-20T13:03:58.938Z,14.50
2023-02-20T13:06:57.990Z,14.50
2023-02-20T13:09:32.117Z,14.50
2023-02-20T13:12:07.810Z,14.50
2023-02-20T13:14:51.902Z,14.60
2023-02-20T13:17:32.263Z,14.60
2023-02-20T13:20:25.159Z,14.70
2023-02-20T13:23:04.978Z,14.80
2023-02-20T13:25:41.289Z,14.90
2023-02-20T13:28:23.837Z,15.10
2023-02-20T13:31:09.727Z,15.20
2023-02-20T13:33:45.268Z,15.40
2023-02-20T13:36:31.315Z,15.50
2023-02-20T13:39:25.384Z,15.72
2023-02-20T13:42:06.801Z,15.80
2023-02-20T13:44:40.270Z,15.90
2023-02-20T13:47:27.454Z,15.90
2023-02-20T13:50:00.646Z,15.92
2023-02-20T13:52:34.132Z,16.00
2023-02-20T13:55:18.688Z,15.90
2023-02-20T13:57:57.968Z,15.80
2023-02-20T14:00:39.877Z,15.70
2023-02-20T14:03:17.924Z,15.54
2023-02-20T14:06:07.404Z,15.50
2023-02-20T14:08:42.003Z,15.40
2023-02-20T14:11:24.218Z,15.40
2023-02-20T14:13:58.150Z,15.34
2023-02-20T14:16:35.977Z,15.40
2023-02-20T14:19:09.397Z,15.50
2023-02-20T14:21:39.556Z,15.50
2023-02-20T14:24:25.824Z,15.50
2023-02-20T14:27:00.566Z,15.50
2023-02-20T14:29:29.636Z,15.50
2023-02-20T14:31:58.563Z,15.50
2023-02-20T14:34:33.722Z,15.50
2023-02-20T14:37:24.087Z,15.50
2023-02-20T14:40:03.240Z,15.50
2023-02-20T14:42:35.475Z,15.50
2023-02-20T14:45:12.782Z,15.50
2023-02-20T14:48:00.876Z,15.42
2023-02-20T14:50:36.472Z,15.36
2023-02-20T14:53:20.924Z,15.28
2023-02-20T14:55:57.049Z,15.20
2023-02-20T14:58:40.520Z,15.20
2023-02-20T15:01:43.195Z,15.20
2023-02-20T15:04:15.820Z,15.20
2023-02-20T15:06:48.648Z,15.20
2023-02-20T15:09:22.901Z,15.20
2023-02-20T15:11:58.284Z,15.20
2023-02-20T15:14:32.717Z,15.10
2023-02-20T15:17:23.701Z,15.10
2023-02-20T15:19:57.922Z,15.04
2023-02-20T15:22:41.097Z,15.00
2023-02-20T15:25:34.159Z,15.00
2023-02-20T15:28:09.482Z,15.00
2023-02-20T15:31:11.468Z,14.98
2023-02-20T15:33:41.652Z,14.90
2023-02-20T15:36:24.862Z,14.80
2023-02-20T15:38:57.068Z,14.70
2023-02-20T15:41:33.113Z,14.68
2023-02-20T15:44:00.322Z,14.60
2023-02-20T15:46:27.337Z,14.50
2023-02-20T15:48:57.238Z,14.40
2023-02-20T15:51:27.041Z,14.30
2023-02-20T15:53:56.767Z,14.30
2023-02-20T15:56:29.721Z,14.20
2023-02-20T15:58:57.470Z,14.10
2023-02-20T16:01:27.545Z,14.00
2023-02-20T16:03:57.457Z,13.90
2023-02-20T16:06:25.010Z,13.80
2023-02-20T16:08:58.903Z,13.70
2023-02-20T16:11:34.764Z,13.60
2023-02-20T16:14:08.660Z,13.50
2023-02-20T16:16:43.907Z,13.40
2023-02-20T16:19:18.853Z,13.30
2023-02-20T16:21:58.389Z,13.20
2023-02-20T16:24:36.499Z,13.10
2023-02-20T16:27:23.667Z,13.00
2023-02-20T16:29:55.760Z,12.90
2023-02-20T16:32:32.602Z,12.80
2023-02-20T16:35:01.702Z,12.70
2023-02-20T16:37:32.594Z,12.60
2023-02-20T16:40:00.065Z,12.48
2023-02-20T16:42:39.691Z,12.30
2023-02-20T16:45:16.187Z,12.20
2023-02-20T16:47:53.758Z,12.10
2023-02-20T16:50:29.413Z,12.00
2023-02-20T16:53:02.429Z,11.90
2023-02-20T16:55:36.466Z,11.80
2023-02-20T16:58:07.311Z,11.70
2023-02-20T17:00:56.657Z,11.60
2023-02-20T17:03:30.590Z,11.50
2023-02-20T17:06:01.231Z,11.46
2023-02-20T17:08:38.635Z,11.40
2023-02-20T17:11:11.661Z,11.30
2023-02-20T17:13:44.075Z,11.20
2023-02-20T17:16:19.366Z,11.20
2023-02-20T17:19:16.652Z,11.10
2023-02-20T17:21:55.690Z,11.02
2023-02-20T17:24:28.113Z,11.00
2023-02-20T17:27:01.502Z,10.90
2023-02-20T17:29:31.714Z,10.80
2023-02-20T17:32:01.979Z,10.76
2023-02-20T17:34:29.267Z,10.68
2023-02-20T17:37:03.312Z,10.60
2023-02-20T17:39:33.454Z,10.50
2023-02-20T17:42:03.212Z,10.50
2023-02-20T17:44:38.501Z,10.42
2023-02-20T17:47:13.788Z,10.40
2023-02-20T17:49:47.267Z,10.38
2023-02-20T17:52:21.253Z,10.30
2023-02-20T17:54:51.009Z,10.30
2023-02-20T17:57:33.246Z,10.30
2023-02-20T18:00:05.422Z,10.26
2023-02-20T18:02:34.772Z,10.20
2023-02-20T18:05:07.455Z,10.10
2023-02-20T18:07:42.288Z,10.10
2023-02-20T18:10:09.748Z,10.00
2023-02-20T18:12:40.498Z,10.00
2023-02-20T18:15:08.236Z,9.90
2023-02-20T18:17:56.893Z,9.90
2023-02-20T18:20:29.717Z,9.80
2023-02-20T18:23:00.206Z,9.80
2023-02-20T18:25:40.412Z,9.68
2023-02-20T18:28:10.896Z,9.60
2023-02-20T18:30:44.006Z,9.60
2023-02-20T18:33:14.603Z,9.56
2023-02-20T18:35:48.767Z,9.50
2023-02-20T18:38:26.823Z,9.42
2023-02-20T18:40:55.210Z,9.40
2023-02-20T18:43:34.275Z,9.30
2023-02-20T18:46:08.202Z,9.30
2023-02-20T18:48:38.889Z,9.30
2023-02-20T18:51:10.583Z,9.30
2023-02-20T18:53:48.634Z,9.30
2023-02-20T18:56:19.153Z,9.30
2023-02-20T18:58:46.821Z,9.26
2023-02-20T19:01:19.927Z,9.20
2023-02-20T19:03:56.484Z,9.10
2023-02-20T19:06:34.161Z,9.10
2023-02-20T19:09:15.860Z,9.10
2023-02-20T19:11:43.334Z,9.10
2023-02-20T19:14:16.826Z,9.02
2023-02-20T19:16:58.539Z,9.00
2023-02-20T19:19:31.361Z,8.92
2023-02-20T19:22:03.173Z,8.90
2023-02-20T19:24:33.217Z,8.90
2023-02-20T19:27:00.321Z,8.80
2023-02-20T19:29:27.534Z,8.80
2023-02-20T19:31:54.810Z,8.80
2023-02-20T19:34:22.306Z,8.80
2023-02-20T19:36:49.358Z,8.80
2023-02-20T19:39:18.646Z,8.70
2023-02-20T19:41:49.879Z,8.70
2023-02-20T19:44:17.843Z,8.70
2023-02-20T19:46:46.058Z,8.70
2023-02-20T19:49:14.735Z,8.70
2023-02-20T19:51:52.882Z,8.80
2023-02-20T19:54:27.969Z,8.80
2023-02-20T19:57:01.551Z,8.80
2023-02-20T19:59:29.626Z,8.80
2023-02-20T20:02:00.353Z,8.80
2023-02-20T20:04:30.745Z,8.80
2023-02-20T20:07:00.074Z,8.70
2023-02-20T20:09:36.068Z,8.70
2023-02-20T20:12:27.154Z,8.60
2023-02-20T20:14:56.168Z,8.60
2023-02-20T20:17:25.033Z,8.50
2023-02-20T20:19:58.936Z,8.50
2023-02-20T20:22:31.173Z,8.40
2023-02-20T20:24:59.074Z,8.30
2023-02-20T20:27:26.399Z,8.20
2023-02-20T20:29:53.994Z,8.16
2023-02-20T20:32:22.111Z,8.10
2023-02-20T20:34:55.614Z,8.00
2023-02-20T20:37:25.235Z,7.94
2023-02-20T20:39:53.866Z,7.90
2023-02-20T20:42:25.099Z,7.80
2023-02-20T20:44:54.664Z,7.80
2023-02-20T20:47:22.989Z,7.80
2023-02-20T20:49:51.369Z,7.72
2023-02-20T20:52:20.359Z,7.70
2023-02-20T20:54:56.605Z,7.70
2023-02-20T20:57:28.006Z,7.70
2023-02-20T20:59:56.180Z,7.68
2023-02-20T21:02:23.656Z,7.62
2023-02-20T21:04:57.866Z,7.60
2023-02-20T21:07:34.984Z,7.60
2023-02-20T21:10:04.728Z,7.60
2023-02-20T21:12:32.156Z,7.60
2023-02-20T21:14:59.989Z,7.60
2023-02-20T21:17:28.145Z,7.60
2023-02-20T21:19:56.460Z,7.60
2023-02-20T21:22:24.537Z,7.60
2023-02-20T21:24:52.404Z,7.60
2023-02-20T21:27:19.659Z,7.60
2023-02-20T21:29:46.720Z,7.60
2023-02-20T21:32:13.858Z,7.60
2023-02-20T21:34:41.005Z,7.64
2023-02-20T21:37:08.262Z,7.66
2023-02-20T21:39:35.134Z,7.64
2023-02-20T21:42:20.822Z,7.68
2023-02-20T21:44:48.122Z,7.68
2023-02-20T21:47:17.199Z,7.70
2023-02-20T21:49:47.319Z,7.70
2023-02-20T21:52:15.950Z,7.70
2023-02-20T21:54:48.602Z,7.70
2023-02-20T21:57:16.274Z,7.70
2023-02-20T21:59:43.209Z,7.76
2023-02-20T22:02:21.347Z,7.76
2023-02-20T22:04:49.423Z,7.80
2023-02-20T22:07:35.748Z,7.80
2023-02-20T22:10:22.578Z,7.86
2023-02-20T22:13:08.903Z,7.90
2023-02-20T22:15:55.034Z,7.90
2023-02-20T22:18:41.016Z,7.90
2023-02-20T22:21:34.974Z,7.90
2023-02-20T22:24:27.315Z,7.90
2023-02-20T22:27:23.874Z,7.90
2023-02-20T22:30:09.807Z,7.90
2023-02-20T22:32:55.978Z,7.90
2023-02-20T22:35:42.337Z,7.90
2023-02-20T22:38:28.545Z,7.82
2023-02-20T22:41:14.753Z,7.88
2023-02-20T22:44:00.794Z,7.82
2023-02-20T22:46:46.357Z,7.90
2023-02-20T22:49:32.604Z,7.90
2023-02-20T22:52:18.157Z,7.90
2023-02-20T22:55:05.641Z,7.90
2023-02-20T22:57:52.519Z,8.00
2023-02-20T23:00:38.303Z,8.10
2023-02-20T23:03:24.480Z,8.20
2023-02-20T23:06:19.599Z,8.30
2023-02-20T23:09:07.395Z,8.40
2023-02-20T23:11:55.300Z,8.50
2023-02-20T23:14:41.412Z,8.66
2023-02-20T23:17:36.334Z,8.80
2023-02-20T23:20:28.309Z,8.90
2023-02-20T23:23:13.930Z,9.00
2023-02-20T23:26:00.646Z,9.20
2023-02-20T23:28:46.511Z,9.40
2023-02-20T23:31:33.259Z,9.50
2023-02-20T23:34:19.626Z,9.70
2023-02-20T23:37:11.115Z,9.80
2023-02-20T23:39:56.481Z,9.90
2023-02-20T23:42:42.071Z,9.94
2023-02-20T23:45:28.790Z,10.06
2023-02-20T23:48:14.758Z,10.10
2023-02-20T23:51:00.349Z,10.20
2023-02-20T23:53:46.641Z,10.30
2023-02-20T23:56:32.856Z,10.34
2023-02-20T23:59:18.418Z,10.40
